Hlavní strana
METAR-TAF:

METAR-TAF

Letiště :

Richard B. Russell Airport

Rome, Georgie, Spojené státy americké

zeměpisná šířka: 34-20-52N, zeměpisná délka: 085-09-40W, výška: 194 m

Aktuální stav počasí

Zpráva byla vytvořena před 52 minutami, v 17:53 UTC
Severní vítr 6 kt
Teplota 11°C
Vlhkost vzduchu 54%
Tlak 1021 hPa
Viditelnost: 16.1 km
Skoro jasno ve výšce 7500 ft
Zataženo ve výšce 9000 ft

METAR: KRMG 151753Z AUTO 35006KT 10SM FEW075 OVC090 11/02 A3015 RMK AO2 RAB1657E12 SLP208 P0000 60000 T01060022 10106 20061 58013

Čas: 13:45 (18:45 UTC)


TAF: chybějící

Stav a předpovědi počasí z více než 4 000 letišť (zprávy METAR a TAF).

Červené a žluté tečky na mapě představují dostupné meteorologické stanice.

Když kurzor umístíte na tečku, zobrazí se název stanice.

Pak kliknutím zobrazíte stav a předpověď počasí.

Chcete-li změnit mapu, kliknutím na zelené tlačítko se znaménkem +mapu přiblížíte, kliknutím na zelené tlačítko se znaménkem – mapu oddálíte a kliknutím na zelené šipky přejdete na sousední mapy.


METAR-TAF: